createdAt,value
2023-05-21T00:00:30.379Z,20.40
2023-05-21T00:03:18.075Z,19.20
2023-05-21T00:05:47.148Z,14.32
2023-05-21T00:08:14.529Z,21.88
2023-05-21T00:10:41.463Z,18.20
2023-05-21T00:13:09.461Z,21.90
2023-05-21T00:15:37.191Z,19.75
2023-05-21T00:18:05.450Z,18.55
2023-05-21T00:20:32.889Z,21.25
2023-05-21T00:23:02.876Z,17.70
2023-05-21T00:25:30.193Z,17.33
2023-05-21T00:27:57.334Z,21.60
2023-05-21T00:30:24.084Z,18.08
2023-05-21T00:32:51.233Z,19.20
2023-05-21T00:35:19.380Z,15.18
2023-05-21T00:37:47.644Z,18.85
2023-05-21T00:40:15.189Z,20.20
2023-05-21T00:42:47.854Z,16.45
2023-05-21T00:45:17.495Z,18.30
2023-05-21T00:47:45.948Z,17.30
2023-05-21T00:50:14.942Z,18.85
2023-05-21T00:52:44.034Z,20.10
2023-05-21T00:55:11.029Z,15.30
2023-05-21T00:57:39.807Z,15.18
2023-05-21T01:00:08.796Z,17.33
2023-05-21T01:02:37.469Z,14.70
2023-05-21T01:05:08.322Z,15.57
2023-05-21T01:07:38.788Z,18.00
2023-05-21T01:10:07.576Z,19.67
2023-05-21T01:12:35.579Z,19.03
2023-05-21T01:15:04.109Z,19.10
2023-05-21T01:17:31.881Z,15.30
2023-05-21T01:20:00.638Z,14.45
2023-05-21T01:22:33.558Z,16.33
2023-05-21T01:25:02.795Z,21.45
2023-05-21T01:27:30.026Z,16.60
2023-05-21T01:29:57.413Z,19.63
2023-05-21T01:32:34.147Z,20.23
2023-05-21T01:35:06.268Z,17.45
2023-05-21T01:37:48.501Z,16.42
2023-05-21T01:40:28.233Z,16.77
2023-05-21T01:42:56.186Z,16.63
2023-05-21T01:45:25.472Z,16.75
2023-05-21T01:47:55.725Z,14.07
2023-05-21T01:50:24.910Z,15.53
2023-05-21T01:52:53.591Z,13.70
2023-05-21T01:55:24.732Z,15.93
2023-05-21T01:57:55.958Z,16.17
2023-05-21T02:00:24.631Z,19.43
2023-05-21T02:02:52.035Z,16.50
2023-05-21T02:05:18.910Z,17.30
2023-05-21T02:07:47.988Z,19.03
2023-05-21T02:10:14.897Z,21.47
2023-05-21T02:12:43.260Z,14.30
2023-05-21T02:15:10.962Z,17.33
2023-05-21T02:17:38.926Z,15.63
2023-05-21T02:20:13.788Z,18.30
2023-05-21T02:22:46.243Z,21.47
2023-05-21T02:25:14.930Z,17.83
2023-05-21T02:27:43.080Z,30.73
2023-05-21T02:30:12.128Z,18.45
2023-05-21T02:32:42.581Z,23.77
2023-05-21T02:35:11.942Z,22.53
2023-05-21T02:37:44.192Z,22.10
2023-05-21T02:40:12.093Z,21.23
2023-05-21T02:42:41.281Z,19.40
2023-05-21T02:45:11.933Z,19.53
2023-05-21T02:47:41.651Z,18.60
2023-05-21T02:50:09.266Z,17.33
2023-05-21T02:52:43.472Z,19.80
2023-05-21T02:55:10.493Z,19.43
2023-05-21T02:57:37.670Z,23.77
2023-05-21T03:00:06.210Z,24.03
2023-05-21T03:02:34.231Z,22.10
2023-05-21T03:05:01.199Z,20.07
2023-05-21T03:07:28.333Z,27.17
2023-05-21T03:09:55.278Z,26.87
2023-05-21T03:12:22.412Z,24.10
2023-05-21T03:14:51.408Z,20.07
2023-05-21T03:17:20.604Z,19.87
2023-05-21T03:19:49.102Z,17.57
2023-05-21T03:22:16.463Z,18.23
2023-05-21T03:24:45.335Z,20.77
2023-05-21T03:27:13.695Z,25.27
2023-05-21T03:29:40.612Z,17.17
2023-05-21T03:32:08.439Z,21.50
2023-05-21T03:34:35.856Z,18.98
2023-05-21T03:37:03.622Z,27.20
2023-05-21T03:39:31.906Z,19.10
2023-05-21T03:41:59.949Z,17.80
2023-05-21T03:44:47.036Z,17.77
2023-05-21T03:47:33.113Z,18.17
2023-05-21T03:50:02.569Z,23.13
2023-05-21T03:52:29.755Z,19.67
2023-05-21T03:54:56.959Z,19.67
2023-05-21T03:57:24.090Z,18.15
2023-05-21T03:59:51.270Z,21.20
2023-05-21T04:02:18.281Z,19.23
2023-05-21T04:04:45.573Z,21.00
2023-05-21T04:07:15.383Z,20.15
2023-05-21T04:09:42.283Z,23.90
2023-05-21T04:12:09.417Z,19.30
2023-05-21T04:14:40.194Z,19.70
2023-05-21T04:17:07.373Z,24.42
2023-05-21T04:19:34.332Z,20.98
2023-05-21T04:22:03.870Z,18.40
2023-05-21T04:24:31.303Z,18.05
2023-05-21T04:27:06.930Z,22.65
2023-05-21T04:29:34.013Z,20.73
2023-05-21T04:32:01.743Z,24.55
2023-05-21T04:34:29.693Z,23.33
2023-05-21T04:36:56.962Z,22.95
2023-05-21T04:39:24.990Z,24.02
2023-05-21T04:41:54.659Z,22.40
2023-05-21T04:44:21.467Z,22.48
2023-05-21T04:46:50.786Z,35.80
2023-05-21T04:49:17.930Z,23.88
2023-05-21T04:51:44.959Z,19.70
2023-05-21T04:54:11.830Z,19.55
2023-05-21T04:56:39.832Z,22.23
2023-05-21T04:59:06.835Z,20.02
2023-05-21T05:01:35.283Z,17.90
2023-05-21T05:04:02.278Z,19.73
2023-05-21T05:06:29.703Z,17.27
2023-05-21T05:08:56.829Z,16.98
2023-05-21T05:11:24.217Z,17.17
2023-05-21T05:13:52.408Z,15.60
2023-05-21T05:16:24.988Z,21.38
2023-05-21T05:18:52.871Z,16.02
2023-05-21T05:21:22.416Z,20.02
2023-05-21T05:23:50.124Z,14.20
2023-05-21T05:26:17.561Z,14.85
2023-05-21T05:28:45.937Z,14.23
2023-05-21T05:31:13.291Z,13.38
2023-05-21T05:33:41.422Z,16.95
2023-05-21T05:36:08.502Z,16.25
2023-05-21T05:38:36.255Z,13.63
2023-05-21T05:41:03.851Z,15.10
2023-05-21T05:43:30.802Z,12.02
2023-05-21T05:46:00.130Z,11.55
2023-05-21T05:48:27.152Z,10.93
2023-05-21T05:50:55.230Z,12.50
2023-05-21T05:53:24.719Z,13.43
2023-05-21T05:55:51.994Z,12.93
2023-05-21T05:58:19.230Z,13.15
2023-05-21T06:00:57.406Z,9.93
2023-05-21T06:03:25.029Z,11.38
2023-05-21T06:05:53.499Z,10.65
2023-05-21T06:08:20.605Z,10.70
2023-05-21T06:10:47.698Z,6.97
2023-05-21T06:13:15.060Z,7.57
2023-05-21T06:15:43.378Z,9.52
2023-05-21T06:18:11.431Z,8.88
2023-05-21T06:20:38.759Z,9.23
2023-05-21T06:23:07.303Z,7.50
2023-05-21T06:25:34.733Z,7.65
2023-05-21T06:28:01.886Z,10.25
2023-05-21T06:30:30.612Z,7.85
2023-05-21T06:32:57.710Z,7.00
2023-05-21T06:35:25.790Z,6.50
2023-05-21T06:37:52.788Z,5.75
2023-05-21T06:40:20.833Z,9.23
2023-05-21T06:42:48.591Z,6.22
2023-05-21T06:45:34.243Z,8.90
2023-05-21T06:48:08.611Z,6.22
2023-05-21T06:50:36.029Z,7.28
2023-05-21T06:53:03.295Z,12.63
2023-05-21T06:55:30.516Z,7.60
2023-05-21T06:58:23.539Z,6.03
2023-05-21T07:00:51.084Z,7.97
2023-05-21T07:03:18.183Z,6.82
2023-05-21T07:05:45.481Z,7.80
2023-05-21T07:08:12.429Z,8.23
2023-05-21T07:10:41.135Z,7.93
2023-05-21T07:13:08.482Z,6.82
2023-05-21T07:15:35.801Z,7.82
2023-05-21T07:18:03.661Z,8.32
2023-05-21T07:20:30.973Z,6.28
2023-05-21T07:23:01.565Z,7.07
2023-05-21T07:25:28.661Z,8.57
2023-05-21T07:27:55.555Z,5.15
2023-05-21T07:30:22.636Z,11.52
2023-05-21T07:32:49.504Z,7.05
2023-05-21T07:35:17.588Z,8.27
2023-05-21T07:37:44.860Z,10.27
2023-05-21T07:40:12.671Z,7.75
2023-05-21T07:42:40.353Z,8.30
2023-05-21T07:45:07.989Z,4.65
2023-05-21T07:47:40.014Z,5.22
2023-05-21T07:50:07.387Z,4.35
2023-05-21T07:52:34.380Z,7.13
2023-05-21T07:55:01.638Z,6.85
2023-05-21T07:57:30.998Z,5.35
2023-05-21T08:00:01.509Z,5.40
2023-05-21T08:02:31.268Z,8.85
2023-05-21T08:05:01.551Z,10.30
2023-05-21T08:07:28.725Z,5.57
2023-05-21T08:09:55.879Z,3.10
2023-05-21T08:12:22.803Z,4.40
2023-05-21T08:14:50.142Z,8.90
2023-05-21T08:17:17.365Z,6.47
2023-05-21T08:19:44.643Z,7.03
2023-05-21T08:22:11.535Z,7.20
2023-05-21T08:24:42.281Z,7.93
2023-05-21T08:27:09.182Z,4.78
2023-05-21T08:29:36.377Z,5.30
2023-05-21T08:32:06.222Z,5.55
2023-05-21T08:34:33.513Z,4.82
2023-05-21T08:37:13.431Z,3.72
2023-05-21T08:40:07.155Z,5.07
2023-05-21T08:42:50.558Z,7.55
2023-05-21T08:45:23.697Z,6.72
2023-05-21T08:47:59.316Z,5.50
2023-05-21T08:50:31.470Z,5.15
2023-05-21T08:53:05.514Z,7.20
2023-05-21T08:55:38.877Z,10.57
2023-05-21T08:58:06.161Z,6.50
2023-05-21T09:00:33.491Z,9.38
2023-05-21T09:03:02.815Z,7.03
2023-05-21T09:05:32.760Z,5.05
2023-05-21T09:08:06.724Z,13.07
2023-05-21T09:10:52.251Z,7.95
2023-05-21T09:13:25.033Z,6.50
2023-05-21T09:15:52.128Z,4.57
2023-05-21T09:18:20.715Z,6.43
2023-05-21T09:20:52.311Z,7.35
2023-05-21T09:23:20.359Z,5.40
2023-05-21T09:25:51.797Z,4.40
2023-05-21T09:28:27.241Z,4.15
2023-05-21T09:30:54.533Z,10.35
2023-05-21T09:33:26.238Z,9.18
2023-05-21T09:35:53.536Z,6.70
2023-05-21T09:38:23.648Z,4.82
2023-05-21T09:40:51.405Z,9.85
2023-05-21T09:43:18.477Z,9.30
2023-05-21T09:45:58.369Z,3.83
2023-05-21T09:48:42.844Z,9.25
2023-05-21T09:51:18.979Z,11.63
2023-05-21T09:53:54.647Z,9.65
2023-05-21T09:56:26.511Z,8.02
2023-05-21T09:58:54.865Z,16.83
2023-05-21T10:01:22.459Z,6.25
2023-05-21T10:04:02.182Z,6.90
2023-05-21T10:06:31.325Z,3.63
2023-05-21T10:09:03.971Z,5.35
2023-05-21T10:11:34.581Z,11.18
2023-05-21T10:14:03.713Z,5.80
2023-05-21T10:16:33.315Z,5.82
2023-05-21T10:19:01.081Z,6.65
2023-05-21T10:21:28.404Z,6.40
2023-05-21T10:23:58.603Z,8.82
2023-05-21T10:26:26.421Z,4.47
2023-05-21T10:28:56.160Z,5.18
2023-05-21T10:31:23.434Z,3.25
2023-05-21T10:33:51.106Z,5.38
2023-05-21T10:36:18.761Z,5.75
2023-05-21T10:38:46.474Z,4.40
2023-05-21T10:41:17.105Z,9.90
2023-05-21T10:43:49.408Z,3.08
2023-05-21T10:47:00.554Z,3.53
2023-05-21T10:49:48.808Z,4.00
2023-05-21T10:52:49.464Z,4.97
2023-05-21T10:55:46.991Z,7.53
2023-05-21T10:58:35.338Z,5.97
2023-05-21T11:01:03.543Z,3.83
2023-05-21T11:03:33.634Z,6.78
2023-05-21T11:06:06.326Z,5.15
2023-05-21T11:08:37.556Z,5.70
2023-05-21T11:11:04.756Z,11.32
2023-05-21T11:13:49.529Z,4.65
2023-05-21T11:16:17.649Z,5.93
2023-05-21T11:18:47.442Z,6.15
2023-05-21T11:21:15.957Z,5.55
2023-05-21T11:23:58.771Z,5.63
2023-05-21T11:26:27.491Z,4.20
2023-05-21T11:29:03.393Z,4.75
2023-05-21T11:31:38.285Z,25.10
2023-05-21T11:34:18.810Z,9.40
2023-05-21T11:36:47.150Z,24.35
2023-05-21T11:39:22.119Z,14.95
2023-05-21T11:42:03.131Z,6.55
2023-05-21T11:44:41.992Z,8.25
2023-05-21T11:47:11.268Z,6.85
2023-05-21T11:49:39.226Z,11.82
2023-05-21T11:52:07.815Z,3.65
2023-05-21T11:54:40.939Z,5.55
2023-05-21T11:57:08.497Z,5.68
2023-05-21T11:59:36.429Z,10.38
2023-05-21T12:02:04.892Z,7.05
2023-05-21T12:04:39.147Z,3.47
2023-05-21T12:07:09.981Z,9.85
2023-05-21T12:09:41.031Z,7.90
2023-05-21T12:12:16.163Z,6.75
2023-05-21T12:14:46.307Z,8.60
2023-05-21T12:17:15.555Z,9.77
2023-05-21T12:19:43.030Z,5.68
2023-05-21T12:22:10.006Z,5.07
2023-05-21T12:24:38.611Z,8.63
2023-05-21T12:27:10.302Z,5.70
2023-05-21T12:29:38.784Z,4.80
2023-05-21T12:32:09.131Z,4.10
2023-05-21T12:34:46.467Z,4.93
2023-05-21T12:37:22.615Z,4.53
2023-05-21T12:39:58.299Z,8.00
2023-05-21T12:42:27.255Z,9.73
2023-05-21T12:44:54.570Z,4.43
2023-05-21T12:47:25.505Z,10.02
2023-05-21T12:50:03.094Z,6.70
2023-05-21T12:52:33.368Z,4.82
2023-05-21T12:55:00.956Z,3.70
2023-05-21T12:57:35.536Z,3.17
2023-05-21T13:00:06.488Z,3.78
2023-05-21T13:02:40.260Z,12.07
2023-05-21T13:05:16.342Z,6.55
2023-05-21T13:07:46.647Z,13.02
2023-05-21T13:10:18.915Z,9.60
2023-05-21T13:12:46.269Z,6.95
2023-05-21T13:15:15.086Z,4.85
2023-05-21T13:17:41.977Z,8.10
2023-05-21T13:20:20.453Z,4.55
2023-05-21T13:22:49.113Z,4.60
2023-05-21T13:25:21.686Z,4.22
2023-05-21T13:27:49.851Z,7.35
2023-05-21T13:30:17.126Z,7.97
2023-05-21T13:32:44.745Z,5.88
2023-05-21T13:35:12.546Z,10.65
2023-05-21T13:37:40.834Z,4.18
2023-05-21T13:40:14.516Z,2.83
2023-05-21T13:42:41.854Z,10.98
2023-05-21T13:45:11.031Z,7.05
2023-05-21T13:47:40.197Z,7.45
2023-05-21T13:50:08.765Z,5.47
2023-05-21T13:52:36.248Z,10.48
2023-05-21T13:55:03.676Z,7.50
2023-05-21T13:57:31.102Z,7.63
2023-05-21T13:59:59.275Z,5.22
2023-05-21T14:02:26.463Z,9.23
2023-05-21T14:04:54.025Z,5.30
2023-05-21T14:07:22.044Z,4.72
2023-05-21T14:09:49.901Z,4.50
2023-05-21T14:12:17.124Z,10.40
2023-05-21T14:14:44.416Z,3.20
2023-05-21T14:17:11.150Z,10.38
2023-05-21T14:19:38.182Z,7.22
2023-05-21T14:22:05.121Z,4.38
2023-05-21T14:24:32.294Z,5.50
2023-05-21T14:26:59.149Z,5.35
2023-05-21T14:29:26.170Z,4.07
2023-05-21T14:31:53.185Z,9.60
2023-05-21T14:34:20.274Z,8.77
2023-05-21T14:36:47.026Z,8.13
2023-05-21T14:39:14.280Z,6.72
2023-05-21T14:41:40.991Z,3.85
2023-05-21T14:44:08.241Z,8.35
2023-05-21T14:46:35.603Z,12.13
2023-05-21T14:49:03.736Z,7.45
2023-05-21T14:51:31.686Z,3.35
2023-05-21T14:53:59.050Z,6.57
2023-05-21T14:56:27.847Z,6.53
2023-05-21T14:58:55.520Z,5.50
2023-05-21T15:01:22.701Z,8.13
2023-05-21T15:03:49.970Z,4.07
2023-05-21T15:06:17.135Z,4.95
2023-05-21T15:08:44.202Z,7.93
2023-05-21T15:11:11.509Z,5.78
2023-05-21T15:13:39.450Z,6.15
2023-05-21T15:16:06.578Z,4.55
2023-05-21T15:18:33.983Z,6.40
2023-05-21T15:21:00.963Z,5.45
2023-05-21T15:23:28.356Z,4.95
2023-05-21T15:25:55.296Z,6.78
2023-05-21T15:28:23.074Z,6.15
2023-05-21T15:30:50.302Z,5.95
2023-05-21T15:33:17.383Z,4.68
2023-05-21T15:35:44.451Z,7.28
2023-05-21T15:38:11.892Z,7.40
2023-05-21T15:40:41.326Z,11.75
2023-05-21T15:43:08.767Z,5.25
2023-05-21T15:45:35.977Z,5.07
2023-05-21T15:48:03.752Z,6.43
2023-05-21T15:50:30.673Z,4.93
2023-05-21T15:52:57.692Z,4.25
2023-05-21T15:55:24.588Z,5.50
2023-05-21T15:57:51.738Z,4.25
2023-05-21T16:00:18.587Z,4.57
2023-05-21T16:02:45.658Z,4.68
2023-05-21T16:05:12.621Z,3.65
2023-05-21T16:07:39.679Z,4.55
2023-05-21T16:10:09.363Z,5.50
2023-05-21T16:12:36.436Z,7.57
2023-05-21T16:15:03.450Z,2.83
2023-05-21T16:17:30.431Z,6.65
2023-05-21T16:19:57.435Z,5.22
2023-05-21T16:22:25.054Z,5.35
2023-05-21T16:24:51.832Z,6.45
2023-05-21T16:27:18.816Z,12.35
2023-05-21T16:29:45.759Z,5.53
2023-05-21T16:32:13.972Z,6.45
2023-05-21T16:34:41.142Z,7.10
2023-05-21T16:37:09.653Z,4.75
2023-05-21T16:39:37.366Z,8.35
2023-05-21T16:42:04.569Z,9.60
2023-05-21T16:44:32.195Z,6.55
2023-05-21T16:46:59.811Z,4.18
2023-05-21T16:49:27.336Z,5.68
2023-05-21T16:51:54.520Z,8.88
2023-05-21T16:54:21.414Z,5.72
2023-05-21T16:56:48.511Z,6.75
2023-05-21T16:59:16.244Z,6.07
2023-05-21T17:01:43.443Z,5.00
2023-05-21T17:04:10.962Z,7.18
2023-05-21T17:06:38.059Z,4.72
2023-05-21T17:09:04.926Z,3.35
2023-05-21T17:11:32.101Z,6.07
2023-05-21T17:13:58.902Z,5.10
2023-05-21T17:16:26.299Z,6.10
2023-05-21T17:18:53.123Z,5.47
2023-05-21T17:21:20.440Z,8.07
2023-05-21T17:23:47.220Z,8.55
2023-05-21T17:26:14.509Z,4.07
2023-05-21T17:28:41.631Z,5.85
2023-05-21T17:31:08.932Z,5.32
2023-05-21T17:33:37.281Z,8.32
2023-05-21T17:36:04.588Z,10.68
2023-05-21T17:38:31.388Z,9.45
2023-05-21T17:40:59.270Z,5.65
2023-05-21T17:43:27.607Z,9.07
2023-05-21T17:45:54.729Z,3.88
2023-05-21T17:48:21.606Z,4.75
2023-05-21T17:50:48.855Z,3.25
2023-05-21T17:53:16.274Z,6.35
2023-05-21T17:55:43.578Z,5.82
2023-05-21T17:58:10.540Z,7.47
2023-05-21T18:00:37.700Z,8.32
2023-05-21T18:03:04.680Z,19.08
2023-05-21T18:05:31.866Z,38.25
2023-05-21T18:08:00.055Z,19.05
2023-05-21T18:10:27.185Z,14.15
2023-05-21T18:12:53.957Z,5.93
2023-05-21T18:15:21.196Z,11.80
2023-05-21T18:17:48.736Z,9.18
2023-05-21T18:20:16.044Z,10.35
2023-05-21T18:22:43.971Z,7.05
2023-05-21T18:25:11.143Z,9.35
2023-05-21T18:27:37.907Z,9.00
2023-05-21T18:30:06.462Z,7.15
2023-05-21T18:32:33.790Z,10.52
2023-05-21T18:35:00.957Z,7.65
2023-05-21T18:37:28.021Z,18.15
2023-05-21T18:39:55.166Z,12.00
2023-05-21T18:42:21.902Z,11.77
2023-05-21T18:44:51.130Z,8.02
2023-05-21T18:47:17.942Z,15.50
2023-05-21T18:49:45.072Z,9.70
2023-05-21T18:52:12.042Z,9.95
2023-05-21T18:54:39.128Z,8.68
2023-05-21T18:57:06.125Z,7.80
2023-05-21T18:59:33.121Z,8.93
2023-05-21T19:02:00.116Z,8.10
2023-05-21T19:04:27.483Z,9.57
2023-05-21T19:06:54.934Z,14.95
2023-05-21T19:09:22.193Z,7.53
2023-05-21T19:11:49.811Z,10.07
2023-05-21T19:14:16.933Z,9.70
2023-05-21T19:16:43.772Z,15.52
2023-05-21T19:19:10.899Z,8.20
2023-05-21T19:21:37.858Z,7.80
2023-05-21T19:24:06.160Z,8.48
2023-05-21T19:26:33.302Z,7.97
2023-05-21T19:29:00.923Z,9.30
2023-05-21T19:31:27.713Z,6.97
2023-05-21T19:33:55.006Z,10.30
2023-05-21T19:36:22.086Z,13.13
2023-05-21T19:38:50.185Z,12.27
2023-05-21T19:41:18.038Z,17.63
2023-05-21T19:43:45.817Z,20.20
2023-05-21T19:46:12.967Z,29.25
2023-05-21T19:48:40.169Z,20.48
2023-05-21T19:51:06.933Z,15.10
2023-05-21T19:53:34.801Z,15.20
2023-05-21T19:56:01.557Z,13.85
2023-05-21T19:58:30.255Z,10.35
2023-05-21T20:01:00.311Z,13.82
2023-05-21T20:03:28.642Z,10.93
2023-05-21T20:05:55.509Z,9.90
2023-05-21T20:08:23.085Z,8.32
2023-05-21T20:10:51.949Z,10.02
2023-05-21T20:13:21.295Z,8.93
2023-05-21T20:15:49.798Z,7.20
2023-05-21T20:18:17.190Z,11.15
2023-05-21T20:20:44.036Z,11.85
2023-05-21T20:23:11.144Z,8.23
2023-05-21T20:25:38.575Z,6.25
2023-05-21T20:28:05.989Z,7.55
2023-05-21T20:30:34.829Z,8.73
2023-05-21T20:33:02.967Z,15.07
2023-05-21T20:35:30.425Z,15.02
2023-05-21T20:37:57.715Z,9.98
2023-05-21T20:40:24.489Z,13.05
2023-05-21T20:42:53.482Z,7.93
2023-05-21T20:45:21.009Z,14.98
2023-05-21T20:47:50.066Z,12.30
2023-05-21T20:50:25.820Z,9.85
2023-05-21T20:52:53.007Z,11.98
2023-05-21T20:55:20.798Z,12.30
2023-05-21T20:57:47.928Z,11.70
2023-05-21T21:00:16.121Z,9.00
2023-05-21T21:02:43.823Z,12.40
2023-05-21T21:05:11.669Z,14.77
2023-05-21T21:07:39.166Z,10.18
2023-05-21T21:10:06.337Z,8.32
2023-05-21T21:12:33.504Z,14.05
2023-05-21T21:15:00.358Z,10.32
2023-05-21T21:17:27.574Z,8.85
2023-05-21T21:19:54.341Z,11.35
2023-05-21T21:22:21.527Z,20.02
2023-05-21T21:24:48.246Z,13.07
2023-05-21T21:27:15.353Z,18.58
2023-05-21T21:29:42.193Z,14.85
2023-05-21T21:32:09.370Z,15.68
2023-05-21T21:34:36.172Z,11.25
2023-05-21T21:37:03.620Z,12.85
2023-05-21T21:39:30.390Z,14.23
2023-05-21T21:41:57.541Z,15.18
2023-05-21T21:44:24.382Z,23.98
2023-05-21T21:46:51.468Z,13.85
2023-05-21T21:49:18.272Z,14.05
2023-05-21T21:51:45.615Z,15.07
2023-05-21T21:54:12.553Z,16.48
2023-05-21T21:56:39.874Z,11.27
2023-05-21T21:59:06.766Z,17.92
2023-05-21T22:01:34.099Z,17.83
2023-05-21T22:04:01.137Z,14.88
2023-05-21T22:06:28.614Z,12.82
2023-05-21T22:08:55.755Z,12.60
2023-05-21T22:11:23.025Z,11.68
2023-05-21T22:13:49.945Z,14.82
2023-05-21T22:16:17.430Z,11.05
2023-05-21T22:18:44.364Z,10.23
2023-05-21T22:21:14.171Z,10.88
2023-05-21T22:23:41.383Z,12.30
2023-05-21T22:26:10.043Z,17.98
2023-05-21T22:28:36.914Z,10.05
2023-05-21T22:31:04.718Z,11.82
2023-05-21T22:33:31.540Z,15.35
2023-05-21T22:35:58.653Z,11.95
2023-05-21T22:38:25.804Z,14.13
2023-05-21T22:40:52.917Z,11.63
2023-05-21T22:43:19.687Z,14.25
2023-05-21T22:45:46.993Z,13.75
2023-05-21T22:48:14.261Z,13.90
2023-05-21T22:50:41.499Z,13.57
2023-05-21T22:53:08.577Z,10.63
2023-05-21T22:55:35.731Z,14.02
2023-05-21T22:58:02.583Z,10.60
2023-05-21T23:00:30.129Z,13.27
2023-05-21T23:02:56.926Z,12.27
2023-05-21T23:05:24.148Z,15.23
2023-05-21T23:07:51.077Z,12.50
2023-05-21T23:10:18.203Z,12.32
2023-05-21T23:12:44.925Z,15.18
2023-05-21T23:15:12.187Z,10.07
2023-05-21T23:17:38.985Z,12.85
2023-05-21T23:20:07.254Z,11.50
2023-05-21T23:22:34.915Z,10.18
2023-05-21T23:25:02.824Z,11.00
2023-05-21T23:27:29.651Z,13.38
2023-05-21T23:29:56.724Z,11.95
2023-05-21T23:32:23.779Z,13.48
2023-05-21T23:34:51.002Z,12.88
2023-05-21T23:37:17.802Z,11.73
2023-05-21T23:39:48.233Z,11.98
2023-05-21T23:42:18.376Z,12.25
2023-05-21T23:44:45.546Z,14.00
2023-05-21T23:47:12.268Z,11.93
2023-05-21T23:49:39.575Z,11.20
2023-05-21T23:52:07.007Z,12.23
2023-05-21T23:54:34.048Z,13.07
2023-05-21T23:57:02.081Z,12.30
2023-05-21T23:59:29.307Z,14.38
